sensor_id;sensor_type;location;lat;lon;timestamp;P1;durP1;ratioP1;P2;durP2;ratioP2
27438;SDS011;14887;51.252;7.470;2022-11-15T00:01:11;19.40;;;10.20;;
27438;SDS011;14887;51.252;7.470;2022-11-15T00:03:39;21.70;;;10.77;;
27438;SDS011;14887;51.252;7.470;2022-11-15T00:06:05;19.20;;;9.73;;
27438;SDS011;14887;51.252;7.470;2022-11-15T00:08:32;22.83;;;10.47;;
27438;SDS011;14887;51.252;7.470;2022-11-15T00:10:58;25.03;;;10.47;;
27438;SDS011;14887;51.252;7.470;2022-11-15T00:13:25;24.73;;;11.13;;
27438;SDS011;14887;51.252;7.470;2022-11-15T00:15:51;30.50;;;11.33;;
27438;SDS011;14887;51.252;7.470;2022-11-15T00:18:17;25.70;;;10.70;;
27438;SDS011;14887;51.252;7.470;2022-11-15T00:20:43;28.73;;;11.50;;
27438;SDS011;14887;51.252;7.470;2022-11-15T00:23:09;19.80;;;11.20;;
27438;SDS011;14887;51.252;7.470;2022-11-15T00:25:35;30.73;;;12.40;;
27438;SDS011;14887;51.252;7.470;2022-11-15T00:28:01;21.93;;;11.87;;
27438;SDS011;14887;51.252;7.470;2022-11-15T00:30:28;26.10;;;11.27;;
27438;SDS011;14887;51.252;7.470;2022-11-15T00:32:54;27.83;;;12.37;;
27438;SDS011;14887;51.252;7.470;2022-11-15T00:35:20;23.63;;;12.27;;
27438;SDS011;14887;51.252;7.470;2022-11-15T00:37:46;26.93;;;11.30;;
27438;SDS011;14887;51.252;7.470;2022-11-15T00:40:12;22.23;;;11.13;;
27438;SDS011;14887;51.252;7.470;2022-11-15T00:42:39;30.50;;;11.83;;
27438;SDS011;14887;51.252;7.470;2022-11-15T00:45:05;29.20;;;12.00;;
27438;SDS011;14887;51.252;7.470;2022-11-15T00:47:31;27.97;;;10.60;;
27438;SDS011;14887;51.252;7.470;2022-11-15T00:49:57;21.37;;;9.50;;
27438;SDS011;14887;51.252;7.470;2022-11-15T00:52:23;23.77;;;11.40;;
27438;SDS011;14887;51.252;7.470;2022-11-15T00:54:49;20.53;;;11.33;;
27438;SDS011;14887;51.252;7.470;2022-11-15T00:57:15;21.77;;;11.23;;
27438;SDS011;14887;51.252;7.470;2022-11-15T00:59:41;20.80;;;11.03;;
27438;SDS011;14887;51.252;7.470;2022-11-15T01:02:07;22.67;;;10.17;;
27438;SDS011;14887;51.252;7.470;2022-11-15T01:04:33;24.60;;;11.33;;
27438;SDS011;14887;51.252;7.470;2022-11-15T01:06:59;29.20;;;12.07;;
27438;SDS011;14887;51.252;7.470;2022-11-15T01:09:25;21.33;;;11.37;;
27438;SDS011;14887;51.252;7.470;2022-11-15T01:11:51;20.93;;;10.57;;
27438;SDS011;14887;51.252;7.470;2022-11-15T01:14:17;19.20;;;9.70;;
27438;SDS011;14887;51.252;7.470;2022-11-15T01:16:44;21.00;;;11.00;;
27438;SDS011;14887;51.252;7.470;2022-11-15T01:19:10;32.90;;;11.40;;
27438;SDS011;14887;51.252;7.470;2022-11-15T01:21:36;22.60;;;10.47;;
27438;SDS011;14887;51.252;7.470;2022-11-15T01:24:02;20.50;;;10.73;;
27438;SDS011;14887;51.252;7.470;2022-11-15T01:26:28;21.57;;;10.70;;
27438;SDS011;14887;51.252;7.470;2022-11-15T01:28:54;19.63;;;10.87;;
27438;SDS011;14887;51.252;7.470;2022-11-15T01:31:20;21.77;;;10.43;;
27438;SDS011;14887;51.252;7.470;2022-11-15T01:33:46;24.57;;;11.30;;
27438;SDS011;14887;51.252;7.470;2022-11-15T01:36:14;27.07;;;12.40;;
27438;SDS011;14887;51.252;7.470;2022-11-15T01:38:40;24.50;;;10.00;;
27438;SDS011;14887;51.252;7.470;2022-11-15T01:41:13;19.50;;;10.20;;
27438;SDS011;14887;51.252;7.470;2022-11-15T01:43:39;19.87;;;10.27;;
27438;SDS011;14887;51.252;7.470;2022-11-15T01:48:40;26.47;;;10.37;;
27438;SDS011;14887;51.252;7.470;2022-11-15T01:51:08;21.40;;;10.70;;
27438;SDS011;14887;51.252;7.470;2022-11-15T01:53:36;21.07;;;10.53;;
27438;SDS011;14887;51.252;7.470;2022-11-15T01:56:04;27.17;;;10.93;;
27438;SDS011;14887;51.252;7.470;2022-11-15T01:58:31;24.77;;;10.80;;
27438;SDS011;14887;51.252;7.470;2022-11-15T02:00:58;23.57;;;10.80;;
27438;SDS011;14887;51.252;7.470;2022-11-15T02:03:26;18.53;;;11.37;;
27438;SDS011;14887;51.252;7.470;2022-11-15T02:05:55;26.13;;;12.37;;
27438;SDS011;14887;51.252;7.470;2022-11-15T02:08:21;26.77;;;12.97;;
27438;SDS011;14887;51.252;7.470;2022-11-15T02:10:47;24.30;;;10.97;;
27438;SDS011;14887;51.252;7.470;2022-11-15T02:13:14;30.20;;;12.37;;
27438;SDS011;14887;51.252;7.470;2022-11-15T02:15:42;30.70;;;12.10;;
27438;SDS011;14887;51.252;7.470;2022-11-15T02:18:21;26.87;;;10.90;;
27438;SDS011;14887;51.252;7.470;2022-11-15T02:21:37;26.77;;;12.70;;
27438;SDS011;14887;51.252;7.470;2022-11-15T02:29:07;22.17;;;11.77;;
27438;SDS011;14887;51.252;7.470;2022-11-15T02:31:44;26.63;;;11.00;;
27438;SDS011;14887;51.252;7.470;2022-11-15T02:36:43;31.23;;;10.50;;
27438;SDS011;14887;51.252;7.470;2022-11-15T02:39:19;24.13;;;10.43;;
27438;SDS011;14887;51.252;7.470;2022-11-15T02:41:48;28.63;;;11.37;;
27438;SDS011;14887;51.252;7.470;2022-11-15T02:46:45;19.73;;;9.17;;
27438;SDS011;14887;51.252;7.470;2022-11-15T02:49:33;19.43;;;10.10;;
27438;SDS011;14887;51.252;7.470;2022-11-15T02:52:00;28.97;;;10.53;;
27438;SDS011;14887;51.252;7.470;2022-11-15T02:54:28;27.13;;;10.27;;
27438;SDS011;14887;51.252;7.470;2022-11-15T02:56:56;15.70;;;9.47;;
27438;SDS011;14887;51.252;7.470;2022-11-15T02:59:30;21.03;;;9.70;;
27438;SDS011;14887;51.252;7.470;2022-11-15T03:04:35;25.37;;;10.67;;
27438;SDS011;14887;51.252;7.470;2022-11-15T03:07:13;18.50;;;9.00;;
27438;SDS011;14887;51.252;7.470;2022-11-15T03:12:23;17.63;;;9.70;;
27438;SDS011;14887;51.252;7.470;2022-11-15T03:14:55;16.50;;;9.80;;
27438;SDS011;14887;51.252;7.470;2022-11-15T03:19:55;18.53;;;9.37;;
27438;SDS011;14887;51.252;7.470;2022-11-15T03:22:23;17.47;;;8.10;;
27438;SDS011;14887;51.252;7.470;2022-11-15T03:24:52;21.27;;;10.27;;
27438;SDS011;14887;51.252;7.470;2022-11-15T03:27:20;16.07;;;9.07;;
27438;SDS011;14887;51.252;7.470;2022-11-15T03:29:48;17.80;;;7.90;;
27438;SDS011;14887;51.252;7.470;2022-11-15T03:32:17;16.40;;;8.83;;
27438;SDS011;14887;51.252;7.470;2022-11-15T03:34:49;18.50;;;7.93;;
27438;SDS011;14887;51.252;7.470;2022-11-15T03:37:15;19.10;;;8.60;;
27438;SDS011;14887;51.252;7.470;2022-11-15T03:39:42;18.53;;;9.23;;
27438;SDS011;14887;51.252;7.470;2022-11-15T03:44:58;19.90;;;9.00;;
27438;SDS011;14887;51.252;7.470;2022-11-15T03:47:32;26.40;;;10.70;;
27438;SDS011;14887;51.252;7.470;2022-11-15T03:50:05;21.10;;;10.80;;
27438;SDS011;14887;51.252;7.470;2022-11-15T03:52:33;24.33;;;9.57;;
27438;SDS011;14887;51.252;7.470;2022-11-15T03:54:59;18.00;;;10.40;;
27438;SDS011;14887;51.252;7.470;2022-11-15T03:57:26;27.80;;;10.70;;
27438;SDS011;14887;51.252;7.470;2022-11-15T03:59:52;16.80;;;9.93;;
27438;SDS011;14887;51.252;7.470;2022-11-15T04:02:18;18.43;;;9.70;;
27438;SDS011;14887;51.252;7.470;2022-11-15T04:04:44;17.87;;;8.93;;
27438;SDS011;14887;51.252;7.470;2022-11-15T04:07:10;14.10;;;9.17;;
27438;SDS011;14887;51.252;7.470;2022-11-15T04:09:36;18.10;;;9.73;;
27438;SDS011;14887;51.252;7.470;2022-11-15T04:12:21;16.53;;;8.50;;
27438;SDS011;14887;51.252;7.470;2022-11-15T04:14:56;17.53;;;7.97;;
27438;SDS011;14887;51.252;7.470;2022-11-15T04:17:38;18.93;;;9.07;;
27438;SDS011;14887;51.252;7.470;2022-11-15T04:20:07;14.77;;;9.53;;
27438;SDS011;14887;51.252;7.470;2022-11-15T04:22:52;16.40;;;8.43;;
27438;SDS011;14887;51.252;7.470;2022-11-15T04:25:37;14.20;;;8.80;;
27438;SDS011;14887;51.252;7.470;2022-11-15T04:28:03;19.90;;;8.57;;
27438;SDS011;14887;51.252;7.470;2022-11-15T04:30:29;16.13;;;9.27;;
27438;SDS011;14887;51.252;7.470;2022-11-15T04:32:55;23.77;;;8.03;;
27438;SDS011;14887;51.252;7.470;2022-11-15T04:35:21;15.30;;;9.87;;
27438;SDS011;14887;51.252;7.470;2022-11-15T04:37:46;17.13;;;10.07;;
27438;SDS011;14887;51.252;7.470;2022-11-15T04:40:12;23.03;;;9.97;;
27438;SDS011;14887;51.252;7.470;2022-11-15T04:42:40;19.63;;;9.87;;
27438;SDS011;14887;51.252;7.470;2022-11-15T04:45:07;18.80;;;10.50;;
27438;SDS011;14887;51.252;7.470;2022-11-15T04:47:33;17.80;;;10.03;;
27438;SDS011;14887;51.252;7.470;2022-11-15T04:49:59;17.50;;;10.33;;
27438;SDS011;14887;51.252;7.470;2022-11-15T04:52:25;16.43;;;9.40;;
27438;SDS011;14887;51.252;7.470;2022-11-15T04:54:51;19.53;;;9.00;;
27438;SDS011;14887;51.252;7.470;2022-11-15T04:57:17;16.47;;;9.63;;
27438;SDS011;14887;51.252;7.470;2022-11-15T04:59:43;16.60;;;10.07;;
27438;SDS011;14887;51.252;7.470;2022-11-15T05:02:09;25.33;;;10.27;;
27438;SDS011;14887;51.252;7.470;2022-11-15T05:04:35;19.93;;;10.30;;
27438;SDS011;14887;51.252;7.470;2022-11-15T05:07:01;20.90;;;9.17;;
27438;SDS011;14887;51.252;7.470;2022-11-15T05:09:29;28.30;;;9.70;;
27438;SDS011;14887;51.252;7.470;2022-11-15T05:11:55;18.13;;;9.43;;
27438;SDS011;14887;51.252;7.470;2022-11-15T05:14:21;17.33;;;8.57;;
27438;SDS011;14887;51.252;7.470;2022-11-15T05:16:47;22.33;;;9.90;;
27438;SDS011;14887;51.252;7.470;2022-11-15T05:19:13;22.80;;;9.60;;
27438;SDS011;14887;51.252;7.470;2022-11-15T05:21:39;24.30;;;9.57;;
27438;SDS011;14887;51.252;7.470;2022-11-15T05:24:05;13.80;;;7.90;;
27438;SDS011;14887;51.252;7.470;2022-11-15T05:26:31;16.60;;;9.17;;
27438;SDS011;14887;51.252;7.470;2022-11-15T05:28:58;14.37;;;8.47;;
27438;SDS011;14887;51.252;7.470;2022-11-15T05:31:24;16.57;;;9.60;;
27438;SDS011;14887;51.252;7.470;2022-11-15T05:33:51;17.53;;;9.53;;
27438;SDS011;14887;51.252;7.470;2022-11-15T05:39:03;17.47;;;8.47;;
27438;SDS011;14887;51.252;7.470;2022-11-15T05:41:31;15.80;;;8.80;;
27438;SDS011;14887;51.252;7.470;2022-11-15T05:43:58;14.80;;;8.60;;
27438;SDS011;14887;51.252;7.470;2022-11-15T05:46:25;19.13;;;8.23;;
27438;SDS011;14887;51.252;7.470;2022-11-15T05:48:51;16.40;;;8.80;;
27438;SDS011;14887;51.252;7.470;2022-11-15T05:51:18;14.20;;;7.90;;
27438;SDS011;14887;51.252;7.470;2022-11-15T05:53:45;14.37;;;7.70;;
27438;SDS011;14887;51.252;7.470;2022-11-15T05:56:11;12.33;;;7.73;;
27438;SDS011;14887;51.252;7.470;2022-11-15T05:58:38;12.87;;;6.67;;
27438;SDS011;14887;51.252;7.470;2022-11-15T06:01:04;12.70;;;6.90;;
27438;SDS011;14887;51.252;7.470;2022-11-15T06:03:30;13.50;;;6.87;;
27438;SDS011;14887;51.252;7.470;2022-11-15T06:05:56;16.37;;;6.63;;
27438;SDS011;14887;51.252;7.470;2022-11-15T06:08:22;13.23;;;6.43;;
27438;SDS011;14887;51.252;7.470;2022-11-15T06:10:48;10.83;;;5.83;;
27438;SDS011;14887;51.252;7.470;2022-11-15T06:13:14;12.70;;;6.30;;
27438;SDS011;14887;51.252;7.470;2022-11-15T06:15:40;9.50;;;5.20;;
27438;SDS011;14887;51.252;7.470;2022-11-15T06:18:06;10.73;;;5.90;;
27438;SDS011;14887;51.252;7.470;2022-11-15T06:20:32;9.77;;;5.10;;
27438;SDS011;14887;51.252;7.470;2022-11-15T06:22:58;8.90;;;5.40;;
27438;SDS011;14887;51.252;7.470;2022-11-15T06:25:25;9.57;;;5.30;;
27438;SDS011;14887;51.252;7.470;2022-11-15T06:27:52;7.47;;;4.40;;
27438;SDS011;14887;51.252;7.470;2022-11-15T06:30:18;6.47;;;4.73;;
27438;SDS011;14887;51.252;7.470;2022-11-15T06:32:44;16.40;;;4.50;;
27438;SDS011;14887;51.252;7.470;2022-11-15T06:35:10;9.60;;;5.17;;
27438;SDS011;14887;51.252;7.470;2022-11-15T06:37:36;5.67;;;4.37;;
27438;SDS011;14887;51.252;7.470;2022-11-15T06:40:02;9.00;;;4.63;;
27438;SDS011;14887;51.252;7.470;2022-11-15T06:42:28;4.40;;;3.60;;
27438;SDS011;14887;51.252;7.470;2022-11-15T06:44:54;6.80;;;4.00;;
27438;SDS011;14887;51.252;7.470;2022-11-15T06:47:20;10.50;;;4.97;;
27438;SDS011;14887;51.252;7.470;2022-11-15T06:49:46;6.70;;;4.30;;
27438;SDS011;14887;51.252;7.470;2022-11-15T06:52:12;5.70;;;3.93;;
27438;SDS011;14887;51.252;7.470;2022-11-15T06:54:38;7.30;;;4.43;;
27438;SDS011;14887;51.252;7.470;2022-11-15T06:57:04;8.07;;;4.47;;
27438;SDS011;14887;51.252;7.470;2022-11-15T06:59:30;9.00;;;4.67;;
27438;SDS011;14887;51.252;7.470;2022-11-15T07:01:56;11.77;;;5.20;;
27438;SDS011;14887;51.252;7.470;2022-11-15T07:04:22;9.23;;;4.43;;
27438;SDS011;14887;51.252;7.470;2022-11-15T07:06:48;6.43;;;3.50;;
27438;SDS011;14887;51.252;7.470;2022-11-15T07:09:14;10.93;;;4.40;;
27438;SDS011;14887;51.252;7.470;2022-11-15T07:11:40;5.40;;;3.93;;
27438;SDS011;14887;51.252;7.470;2022-11-15T07:14:06;6.27;;;3.33;;
27438;SDS011;14887;51.252;7.470;2022-11-15T07:16:32;12.03;;;5.30;;
27438;SDS011;14887;51.252;7.470;2022-11-15T07:18:58;7.97;;;3.50;;
27438;SDS011;14887;51.252;7.470;2022-11-15T07:21:24;4.43;;;2.73;;
27438;SDS011;14887;51.252;7.470;2022-11-15T07:23:50;5.03;;;2.60;;
27438;SDS011;14887;51.252;7.470;2022-11-15T07:26:16;5.77;;;3.20;;
27438;SDS011;14887;51.252;7.470;2022-11-15T07:28:42;4.77;;;2.97;;
27438;SDS011;14887;51.252;7.470;2022-11-15T07:31:08;4.97;;;2.70;;
27438;SDS011;14887;51.252;7.470;2022-11-15T07:33:35;3.63;;;2.77;;
27438;SDS011;14887;51.252;7.470;2022-11-15T07:36:01;3.07;;;2.50;;
27438;SDS011;14887;51.252;7.470;2022-11-15T07:38:28;3.80;;;2.90;;
27438;SDS011;14887;51.252;7.470;2022-11-15T07:40:58;6.00;;;2.90;;
27438;SDS011;14887;51.252;7.470;2022-11-15T07:43:24;5.73;;;3.10;;
27438;SDS011;14887;51.252;7.470;2022-11-15T07:45:52;3.17;;;2.73;;
27438;SDS011;14887;51.252;7.470;2022-11-15T07:48:19;2.90;;;2.50;;
27438;SDS011;14887;51.252;7.470;2022-11-15T07:50:45;6.00;;;3.50;;
27438;SDS011;14887;51.252;7.470;2022-11-15T07:53:11;4.00;;;2.40;;
27438;SDS011;14887;51.252;7.470;2022-11-15T07:55:37;9.63;;;2.30;;
27438;SDS011;14887;51.252;7.470;2022-11-15T07:58:03;3.03;;;2.13;;
27438;SDS011;14887;51.252;7.470;2022-11-15T08:00:30;3.80;;;2.33;;
27438;SDS011;14887;51.252;7.470;2022-11-15T08:03:09;3.63;;;2.60;;
27438;SDS011;14887;51.252;7.470;2022-11-15T08:05:35;2.17;;;1.70;;
27438;SDS011;14887;51.252;7.470;2022-11-15T08:08:01;19.00;;;3.00;;
27438;SDS011;14887;51.252;7.470;2022-11-15T08:10:28;4.00;;;1.67;;
27438;SDS011;14887;51.252;7.470;2022-11-15T08:12:58;8.13;;;2.10;;
27438;SDS011;14887;51.252;7.470;2022-11-15T08:15:24;5.13;;;2.13;;
27438;SDS011;14887;51.252;7.470;2022-11-15T08:17:57;2.20;;;1.70;;
27438;SDS011;14887;51.252;7.470;2022-11-15T08:20:23;2.70;;;2.10;;
27438;SDS011;14887;51.252;7.470;2022-11-15T08:22:50;2.47;;;1.50;;
27438;SDS011;14887;51.252;7.470;2022-11-15T08:25:16;7.17;;;2.50;;
27438;SDS011;14887;51.252;7.470;2022-11-15T08:27:42;1.80;;;1.30;;
27438;SDS011;14887;51.252;7.470;2022-11-15T08:30:08;2.30;;;1.57;;
27438;SDS011;14887;51.252;7.470;2022-11-15T08:32:34;9.53;;;1.70;;
27438;SDS011;14887;51.252;7.470;2022-11-15T08:35:00;3.17;;;1.93;;
27438;SDS011;14887;51.252;7.470;2022-11-15T08:37:25;4.20;;;1.93;;
27438;SDS011;14887;51.252;7.470;2022-11-15T08:39:51;4.70;;;1.77;;
27438;SDS011;14887;51.252;7.470;2022-11-15T08:42:18;5.53;;;1.70;;
27438;SDS011;14887;51.252;7.470;2022-11-15T08:44:43;2.30;;;2.10;;
27438;SDS011;14887;51.252;7.470;2022-11-15T08:47:12;6.00;;;2.03;;
27438;SDS011;14887;51.252;7.470;2022-11-15T08:49:38;3.13;;;1.50;;
27438;SDS011;14887;51.252;7.470;2022-11-15T08:52:04;2.00;;;1.80;;
27438;SDS011;14887;51.252;7.470;2022-11-15T08:54:30;3.33;;;2.20;;
27438;SDS011;14887;51.252;7.470;2022-11-15T08:56:56;2.47;;;1.60;;
27438;SDS011;14887;51.252;7.470;2022-11-15T08:59:22;3.87;;;1.83;;
27438;SDS011;14887;51.252;7.470;2022-11-15T09:01:49;2.30;;;1.73;;
27438;SDS011;14887;51.252;7.470;2022-11-15T09:04:15;2.50;;;2.07;;
27438;SDS011;14887;51.252;7.470;2022-11-15T09:06:41;4.40;;;1.90;;
27438;SDS011;14887;51.252;7.470;2022-11-15T09:09:07;1.80;;;1.50;;
27438;SDS011;14887;51.252;7.470;2022-11-15T09:11:33;3.73;;;2.30;;
27438;SDS011;14887;51.252;7.470;2022-11-15T09:13:59;2.13;;;1.67;;
27438;SDS011;14887;51.252;7.470;2022-11-15T09:16:25;5.40;;;1.73;;
27438;SDS011;14887;51.252;7.470;2022-11-15T09:18:51;2.10;;;1.67;;
27438;SDS011;14887;51.252;7.470;2022-11-15T09:21:18;3.17;;;1.70;;
27438;SDS011;14887;51.252;7.470;2022-11-15T09:23:44;4.00;;;1.70;;
27438;SDS011;14887;51.252;7.470;2022-11-15T09:26:10;2.00;;;1.60;;
27438;SDS011;14887;51.252;7.470;2022-11-15T09:28:36;1.90;;;1.70;;
27438;SDS011;14887;51.252;7.470;2022-11-15T09:31:04;4.10;;;1.97;;
27438;SDS011;14887;51.252;7.470;2022-11-15T09:33:30;4.50;;;1.93;;
27438;SDS011;14887;51.252;7.470;2022-11-15T09:36:00;8.50;;;1.70;;
27438;SDS011;14887;51.252;7.470;2022-11-15T09:38:26;1.43;;;1.30;;
27438;SDS011;14887;51.252;7.470;2022-11-15T09:40:55;1.93;;;1.47;;
27438;SDS011;14887;51.252;7.470;2022-11-15T09:43:35;2.93;;;1.70;;
27438;SDS011;14887;51.252;7.470;2022-11-15T09:46:18;9.40;;;1.50;;
27438;SDS011;14887;51.252;7.470;2022-11-15T09:48:48;5.63;;;1.63;;
27438;SDS011;14887;51.252;7.470;2022-11-15T09:51:29;1.77;;;1.30;;
27438;SDS011;14887;51.252;7.470;2022-11-15T09:54:10;2.00;;;1.50;;
27438;SDS011;14887;51.252;7.470;2022-11-15T09:56:38;2.47;;;1.73;;
27438;SDS011;14887;51.252;7.470;2022-11-15T09:59:14;2.33;;;1.37;;
27438;SDS011;14887;51.252;7.470;2022-11-15T10:04:12;2.37;;;1.37;;
27438;SDS011;14887;51.252;7.470;2022-11-15T10:06:46;1.83;;;1.27;;
27438;SDS011;14887;51.252;7.470;2022-11-15T10:09:23;2.30;;;1.63;;
27438;SDS011;14887;51.252;7.470;2022-11-15T10:11:51;3.23;;;1.50;;
27438;SDS011;14887;51.252;7.470;2022-11-15T10:14:18;3.60;;;1.70;;
27438;SDS011;14887;51.252;7.470;2022-11-15T10:16:59;4.60;;;1.50;;
27438;SDS011;14887;51.252;7.470;2022-11-15T10:24:30;3.70;;;1.40;;
27438;SDS011;14887;51.252;7.470;2022-11-15T10:26:58;2.90;;;1.77;;
27438;SDS011;14887;51.252;7.470;2022-11-15T10:29:24;1.83;;;1.17;;
27438;SDS011;14887;51.252;7.470;2022-11-15T10:31:51;3.33;;;1.60;;
27438;SDS011;14887;51.252;7.470;2022-11-15T10:34:22;2.83;;;1.53;;
27438;SDS011;14887;51.252;7.470;2022-11-15T10:36:55;4.50;;;1.13;;
27438;SDS011;14887;51.252;7.470;2022-11-15T10:39:21;2.70;;;1.30;;
27438;SDS011;14887;51.252;7.470;2022-11-15T10:41:47;2.70;;;1.53;;
27438;SDS011;14887;51.252;7.470;2022-11-15T10:46:46;23.93;;;3.50;;
27438;SDS011;14887;51.252;7.470;2022-11-15T10:49:14;1.53;;;0.87;;
27438;SDS011;14887;51.252;7.470;2022-11-15T10:51:47;2.47;;;1.20;;
27438;SDS011;14887;51.252;7.470;2022-11-15T10:54:30;3.07;;;1.20;;
27438;SDS011;14887;51.252;7.470;2022-11-15T10:56:57;2.43;;;1.30;;
27438;SDS011;14887;51.252;7.470;2022-11-15T10:59:25;1.93;;;1.23;;
27438;SDS011;14887;51.252;7.470;2022-11-15T11:01:52;1.90;;;1.23;;
27438;SDS011;14887;51.252;7.470;2022-11-15T11:04:18;3.50;;;1.20;;
27438;SDS011;14887;51.252;7.470;2022-11-15T11:06:51;2.00;;;0.93;;
27438;SDS011;14887;51.252;7.470;2022-11-15T11:09:21;7.47;;;1.00;;
27438;SDS011;14887;51.252;7.470;2022-11-15T11:11:48;5.50;;;1.03;;
27438;SDS011;14887;51.252;7.470;2022-11-15T11:14:23;3.63;;;1.10;;
27438;SDS011;14887;51.252;7.470;2022-11-15T11:16:55;1.83;;;0.90;;
27438;SDS011;14887;51.252;7.470;2022-11-15T11:19:33;1.60;;;0.90;;
27438;SDS011;14887;51.252;7.470;2022-11-15T11:22:05;8.07;;;1.37;;
27438;SDS011;14887;51.252;7.470;2022-11-15T11:27:17;2.60;;;1.00;;
27438;SDS011;14887;51.252;7.470;2022-11-15T11:29:59;2.33;;;0.90;;
27438;SDS011;14887;51.252;7.470;2022-11-15T11:32:50;1.57;;;0.90;;
27438;SDS011;14887;51.252;7.470;2022-11-15T11:37:42;4.30;;;1.53;;
27438;SDS011;14887;51.252;7.470;2022-11-15T11:42:58;16.53;;;2.63;;
27438;SDS011;14887;51.252;7.470;2022-11-15T11:45:48;4.60;;;1.00;;
27438;SDS011;14887;51.252;7.470;2022-11-15T11:50:42;5.10;;;0.90;;
27438;SDS011;14887;51.252;7.470;2022-11-15T11:55:39;1.57;;;0.80;;
27438;SDS011;14887;51.252;7.470;2022-11-15T12:00:43;0.97;;;0.67;;
27438;SDS011;14887;51.252;7.470;2022-11-15T12:03:44;0.80;;;0.70;;
27438;SDS011;14887;51.252;7.470;2022-11-15T12:06:05;1.00;;;0.87;;
27438;SDS011;14887;51.252;7.470;2022-11-15T12:11:50;1.20;;;0.90;;
27438;SDS011;14887;51.252;7.470;2022-11-15T12:13:53;1.47;;;0.80;;
27438;SDS011;14887;51.252;7.470;2022-11-15T12:16:22;1.80;;;1.00;;
27438;SDS011;14887;51.252;7.470;2022-11-15T12:18:51;5.30;;;1.30;;
27438;SDS011;14887;51.252;7.470;2022-11-15T12:23:52;2.30;;;0.80;;
27438;SDS011;14887;51.252;7.470;2022-11-15T12:26:21;2.10;;;0.93;;
27438;SDS011;14887;51.252;7.470;2022-11-15T12:28:52;4.53;;;0.97;;
27438;SDS011;14887;51.252;7.470;2022-11-15T12:33:46;2.40;;;1.00;;
27438;SDS011;14887;51.252;7.470;2022-11-15T12:36:30;2.87;;;1.10;;
27438;SDS011;14887;51.252;7.470;2022-11-15T12:38:58;2.30;;;0.90;;
27438;SDS011;14887;51.252;7.470;2022-11-15T12:43:51;3.70;;;1.17;;
27438;SDS011;14887;51.252;7.470;2022-11-15T12:59:47;3.53;;;0.90;;
27438;SDS011;14887;51.252;7.470;2022-11-15T13:02:26;3.20;;;0.83;;
27438;SDS011;14887;51.252;7.470;2022-11-15T13:17:48;2.33;;;1.13;;
27438;SDS011;14887;51.252;7.470;2022-11-15T13:22:42;3.80;;;1.20;;
27438;SDS011;14887;51.252;7.470;2022-11-15T13:30:39;3.47;;;1.50;;
27438;SDS011;14887;51.252;7.470;2022-11-15T13:33:13;3.43;;;1.40;;
27438;SDS011;14887;51.252;7.470;2022-11-15T13:35:41;6.37;;;1.33;;
27438;SDS011;14887;51.252;7.470;2022-11-15T13:38:25;2.50;;;1.43;;
27438;SDS011;14887;51.252;7.470;2022-11-15T13:40:52;2.77;;;1.70;;
27438;SDS011;14887;51.252;7.470;2022-11-15T13:49:22;1.67;;;1.13;;
27438;SDS011;14887;51.252;7.470;2022-11-15T13:51:48;2.90;;;1.40;;
27438;SDS011;14887;51.252;7.470;2022-11-15T13:54:17;2.53;;;1.33;;
27438;SDS011;14887;51.252;7.470;2022-11-15T13:56:45;4.60;;;1.70;;
27438;SDS011;14887;51.252;7.470;2022-11-15T13:59:15;2.57;;;1.60;;
27438;SDS011;14887;51.252;7.470;2022-11-15T14:01:43;14.60;;;1.50;;
27438;SDS011;14887;51.252;7.470;2022-11-15T14:04:11;3.23;;;1.50;;
27438;SDS011;14887;51.252;7.470;2022-11-15T14:06:43;3.90;;;1.23;;
27438;SDS011;14887;51.252;7.470;2022-11-15T14:11:36;3.30;;;1.30;;
27438;SDS011;14887;51.252;7.470;2022-11-15T14:16:46;5.63;;;1.70;;
27438;SDS011;14887;51.252;7.470;2022-11-15T14:19:33;3.53;;;1.63;;
27438;SDS011;14887;51.252;7.470;2022-11-15T14:22:09;2.23;;;1.40;;
27438;SDS011;14887;51.252;7.470;2022-11-15T14:24:35;1.97;;;1.47;;
27438;SDS011;14887;51.252;7.470;2022-11-15T14:29:46;3.57;;;2.00;;
27438;SDS011;14887;51.252;7.470;2022-11-15T14:32:17;5.00;;;1.80;;
27438;SDS011;14887;51.252;7.470;2022-11-15T14:34:44;6.63;;;1.67;;
27438;SDS011;14887;51.252;7.470;2022-11-15T14:37:19;2.80;;;1.43;;
27438;SDS011;14887;51.252;7.470;2022-11-15T14:39:45;9.83;;;2.60;;
27438;SDS011;14887;51.252;7.470;2022-11-15T14:42:12;2.23;;;1.27;;
27438;SDS011;14887;51.252;7.470;2022-11-15T14:44:38;64.10;;;5.50;;
27438;SDS011;14887;51.252;7.470;2022-11-15T14:47:04;3.57;;;1.70;;
27438;SDS011;14887;51.252;7.470;2022-11-15T14:49:30;2.60;;;2.00;;
27438;SDS011;14887;51.252;7.470;2022-11-15T14:51:56;6.70;;;1.50;;
27438;SDS011;14887;51.252;7.470;2022-11-15T14:54:21;7.60;;;1.20;;
27438;SDS011;14887;51.252;7.470;2022-11-15T14:56:48;3.40;;;2.10;;
27438;SDS011;14887;51.252;7.470;2022-11-15T14:59:14;9.13;;;2.87;;
27438;SDS011;14887;51.252;7.470;2022-11-15T15:01:40;6.93;;;1.50;;
27438;SDS011;14887;51.252;7.470;2022-11-15T15:04:06;4.83;;;2.10;;
27438;SDS011;14887;51.252;7.470;2022-11-15T15:06:32;4.20;;;1.50;;
27438;SDS011;14887;51.252;7.470;2022-11-15T15:08:57;4.57;;;1.67;;
27438;SDS011;14887;51.252;7.470;2022-11-15T15:11:25;5.50;;;2.00;;
27438;SDS011;14887;51.252;7.470;2022-11-15T15:13:52;6.13;;;1.63;;
27438;SDS011;14887;51.252;7.470;2022-11-15T15:16:21;1.77;;;1.23;;
27438;SDS011;14887;51.252;7.470;2022-11-15T15:18:47;4.23;;;1.97;;
27438;SDS011;14887;51.252;7.470;2022-11-15T15:21:26;5.23;;;1.53;;
27438;SDS011;14887;51.252;7.470;2022-11-15T15:23:52;2.30;;;1.40;;
27438;SDS011;14887;51.252;7.470;2022-11-15T15:26:21;5.07;;;1.80;;
27438;SDS011;14887;51.252;7.470;2022-11-15T15:28:47;3.10;;;1.80;;
27438;SDS011;14887;51.252;7.470;2022-11-15T15:31:15;2.20;;;1.60;;
27438;SDS011;14887;51.252;7.470;2022-11-15T15:33:41;2.33;;;1.47;;
27438;SDS011;14887;51.252;7.470;2022-11-15T15:36:10;2.63;;;1.50;;
27438;SDS011;14887;51.252;7.470;2022-11-15T15:38:36;3.30;;;1.90;;
27438;SDS011;14887;51.252;7.470;2022-11-15T15:41:07;4.70;;;1.80;;
27438;SDS011;14887;51.252;7.470;2022-11-15T15:43:34;3.53;;;2.40;;
27438;SDS011;14887;51.252;7.470;2022-11-15T15:45:59;4.13;;;2.20;;
27438;SDS011;14887;51.252;7.470;2022-11-15T15:48:25;3.03;;;1.80;;
27438;SDS011;14887;51.252;7.470;2022-11-15T15:50:51;2.70;;;1.80;;
27438;SDS011;14887;51.252;7.470;2022-11-15T15:53:17;3.90;;;2.00;;
27438;SDS011;14887;51.252;7.470;2022-11-15T15:55:44;2.73;;;1.63;;
27438;SDS011;14887;51.252;7.470;2022-11-15T15:58:10;9.00;;;2.07;;
27438;SDS011;14887;51.252;7.470;2022-11-15T16:00:36;1.77;;;1.50;;
27438;SDS011;14887;51.252;7.470;2022-11-15T16:03:02;3.10;;;1.60;;
27438;SDS011;14887;51.252;7.470;2022-11-15T16:05:28;4.40;;;1.43;;
27438;SDS011;14887;51.252;7.470;2022-11-15T16:07:54;2.93;;;1.90;;
27438;SDS011;14887;51.252;7.470;2022-11-15T16:12:46;3.63;;;2.00;;
27438;SDS011;14887;51.252;7.470;2022-11-15T16:15:12;4.37;;;2.40;;
27438;SDS011;14887;51.252;7.470;2022-11-15T16:17:40;2.07;;;1.50;;
27438;SDS011;14887;51.252;7.470;2022-11-15T16:20:08;3.87;;;1.93;;
27438;SDS011;14887;51.252;7.470;2022-11-15T16:22:40;4.00;;;2.23;;
27438;SDS011;14887;51.252;7.470;2022-11-15T16:25:06;2.47;;;1.57;;
27438;SDS011;14887;51.252;7.470;2022-11-15T16:27:32;3.50;;;2.10;;
27438;SDS011;14887;51.252;7.470;2022-11-15T16:29:59;3.90;;;1.87;;
27438;SDS011;14887;51.252;7.470;2022-11-15T16:32:25;2.90;;;1.80;;
27438;SDS011;14887;51.252;7.470;2022-11-15T16:34:52;3.30;;;1.57;;
27438;SDS011;14887;51.252;7.470;2022-11-15T16:37:21;2.27;;;1.40;;